UKOO/ODS METAR and TAF weather

Enter ICAO airport designator
Station Type Date Time Source
UKOO METAR 2019/06/18 16:30 UTC NOAA

UKOO 181630Z 14002MPS 9999 FEW///TCU 30/11 Q1012 R16/090060 NOSIG


Station Type Date Time Source
UKOO Decoded METAR 2019/06/18 16:30 UTC NOAA

Odesa, Ukraine (UKOO) 46-26N 030-46E 42M
Jun 18, 2019 - 12:30 PM EDT / 2019.06.18 1630 UTC
Wind: from the SE (140 degrees) at 4 MPH (4 KT):0
Visibility: greater than 7 mile(s):0
Sky conditions: mostly clear
Weather: Towering cumulus clouds observed
Temperature: 86 F (30 C)
Dew Point: 51 F (11 C)
Relative Humidity: 30%
Pressure (altimeter): 29.88 in. Hg (1012 hPa)
ob: UKOO 181630Z 14002MPS 9999 FEW///TCU 30/11 Q1012 R16/090060 NOSIG
cycle: 16

Station Type Date Time Source
UKOO TAF 2019/06/18 12:12 UTC NOAA

TAF UKOO 181107Z 1812/1912 13003G08MPS 9999 SCT010 SCT020CB TX31/1812Z TN22/1902Z PROB40
TEMPO 1812/1816 VRB09G17MPS 2100 -TSRAGR SQ
BECMG 1816/1817 04003MPS

Example: see airport list